sensor_id;sensor_type;location;lat;lon;timestamp;temperature;humidity
25945;SHT31;13742;49.306;8.636;2022-07-23T00:00:18;26.24;56.70
25945;SHT31;13742;49.306;8.636;2022-07-23T00:01:17;26.24;56.78
25945;SHT31;13742;49.306;8.636;2022-07-23T00:02:17;26.22;56.84
25945;SHT31;13742;49.306;8.636;2022-07-23T00:03:17;26.22;56.81
25945;SHT31;13742;49.306;8.636;2022-07-23T00:04:17;26.24;56.86
25945;SHT31;13742;49.306;8.636;2022-07-23T00:05:17;26.25;57.02
25945;SHT31;13742;49.306;8.636;2022-07-23T00:06:17;26.25;56.97
25945;SHT31;13742;49.306;8.636;2022-07-23T00:07:17;26.22;56.82
25945;SHT31;13742;49.306;8.636;2022-07-23T00:08:17;26.19;56.66
25945;SHT31;13742;49.306;8.636;2022-07-23T00:09:17;26.22;56.87
25945;SHT31;13742;49.306;8.636;2022-07-23T00:10:17;26.19;56.79
25945;SHT31;13742;49.306;8.636;2022-07-23T00:11:18;26.19;57.01
25945;SHT31;13742;49.306;8.636;2022-07-23T00:12:17;26.18;57.10
25945;SHT31;13742;49.306;8.636;2022-07-23T00:13:17;26.19;57.42
25945;SHT31;13742;49.306;8.636;2022-07-23T00:14:17;26.13;57.97
25945;SHT31;13742;49.306;8.636;2022-07-23T00:15:18;26.13;58.23
25945;SHT31;13742;49.306;8.636;2022-07-23T00:16:17;26.07;58.32
25945;SHT31;13742;49.306;8.636;2022-07-23T00:17:17;26.02;57.92
25945;SHT31;13742;49.306;8.636;2022-07-23T00:18:17;26.02;57.77
25945;SHT31;13742;49.306;8.636;2022-07-23T00:19:17;26.04;57.51
25945;SHT31;13742;49.306;8.636;2022-07-23T00:20:18;26.02;57.91
25945;SHT31;13742;49.306;8.636;2022-07-23T00:21:17;26.02;57.70
25945;SHT31;13742;49.306;8.636;2022-07-23T00:22:17;26.02;57.79
25945;SHT31;13742;49.306;8.636;2022-07-23T00:23:17;26.01;57.45
25945;SHT31;13742;49.306;8.636;2022-07-23T00:24:17;26.02;57.57
25945;SHT31;13742;49.306;8.636;2022-07-23T00:25:18;26.02;57.50
25945;SHT31;13742;49.306;8.636;2022-07-23T00:26:17;26.01;57.31
25945;SHT31;13742;49.306;8.636;2022-07-23T00:27:17;26.01;57.84
25945;SHT31;13742;49.306;8.636;2022-07-23T00:28:18;26.02;57.66
25945;SHT31;13742;49.306;8.636;2022-07-23T00:29:17;25.99;57.87
25945;SHT31;13742;49.306;8.636;2022-07-23T00:30:17;26.01;58.58
25945;SHT31;13742;49.306;8.636;2022-07-23T00:31:17;25.98;58.65
25945;SHT31;13742;49.306;8.636;2022-07-23T00:32:17;25.95;58.84
25945;SHT31;13742;49.306;8.636;2022-07-23T00:33:17;25.95;58.63
25945;SHT31;13742;49.306;8.636;2022-07-23T00:34:17;25.92;58.90
25945;SHT31;13742;49.306;8.636;2022-07-23T00:35:20;25.83;59.29
25945;SHT31;13742;49.306;8.636;2022-07-23T00:36:17;25.76;59.77
25945;SHT31;13742;49.306;8.636;2022-07-23T00:37:17;25.73;59.90
25945;SHT31;13742;49.306;8.636;2022-07-23T00:38:17;25.70;59.92
25945;SHT31;13742;49.306;8.636;2022-07-23T00:39:17;25.54;61.06
25945;SHT31;13742;49.306;8.636;2022-07-23T00:40:17;25.50;60.75
25945;SHT31;13742;49.306;8.636;2022-07-23T00:41:17;25.40;61.17
25945;SHT31;13742;49.306;8.636;2022-07-23T00:42:17;25.33;61.24
25945;SHT31;13742;49.306;8.636;2022-07-23T00:43:20;25.36;60.93
25945;SHT31;13742;49.306;8.636;2022-07-23T00:44:22;25.34;60.83
25945;SHT31;13742;49.306;8.636;2022-07-23T00:45:18;25.33;61.03
25945;SHT31;13742;49.306;8.636;2022-07-23T00:46:21;25.13;61.63
25945;SHT31;13742;49.306;8.636;2022-07-23T00:47:17;25.09;61.86
25945;SHT31;13742;49.306;8.636;2022-07-23T00:48:17;25.10;61.75
25945;SHT31;13742;49.306;8.636;2022-07-23T00:49:17;25.10;61.77
25945;SHT31;13742;49.306;8.636;2022-07-23T00:50:17;24.98;61.88
25945;SHT31;13742;49.306;8.636;2022-07-23T00:51:18;24.81;62.40
25945;SHT31;13742;49.306;8.636;2022-07-23T00:52:17;24.70;62.61
25945;SHT31;13742;49.306;8.636;2022-07-23T00:53:19;24.48;63.22
25945;SHT31;13742;49.306;8.636;2022-07-23T00:54:18;24.52;63.15
25945;SHT31;13742;49.306;8.636;2022-07-23T00:55:17;24.52;62.81
25945;SHT31;13742;49.306;8.636;2022-07-23T00:56:17;24.43;63.13
25945;SHT31;13742;49.306;8.636;2022-07-23T00:57:17;24.34;63.51
25945;SHT31;13742;49.306;8.636;2022-07-23T00:58:18;24.27;63.75
25945;SHT31;13742;49.306;8.636;2022-07-23T00:59:17;24.17;63.97
25945;SHT31;13742;49.306;8.636;2022-07-23T01:00:17;24.17;64.03
25945;SHT31;13742;49.306;8.636;2022-07-23T01:01:17;24.17;64.02
25945;SHT31;13742;49.306;8.636;2022-07-23T01:02:17;24.03;64.24
25945;SHT31;13742;49.306;8.636;2022-07-23T01:03:17;24.02;64.21
25945;SHT31;13742;49.306;8.636;2022-07-23T01:04:17;24.02;64.25
25945;SHT31;13742;49.306;8.636;2022-07-23T01:05:22;24.07;63.86
25945;SHT31;13742;49.306;8.636;2022-07-23T01:06:17;24.11;63.68
25945;SHT31;13742;49.306;8.636;2022-07-23T01:07:18;24.17;63.13
25945;SHT31;13742;49.306;8.636;2022-07-23T01:08:17;24.23;63.16
25945;SHT31;13742;49.306;8.636;2022-07-23T01:09:18;24.30;62.72
25945;SHT31;13742;49.306;8.636;2022-07-23T01:10:23;24.17;63.13
25945;SHT31;13742;49.306;8.636;2022-07-23T01:11:18;24.16;63.29
25945;SHT31;13742;49.306;8.636;2022-07-23T01:12:18;24.19;62.85
25945;SHT31;13742;49.306;8.636;2022-07-23T01:13:17;24.23;62.77
25945;SHT31;13742;49.306;8.636;2022-07-23T01:14:18;24.30;62.73
25945;SHT31;13742;49.306;8.636;2022-07-23T01:15:17;24.30;62.82
25945;SHT31;13742;49.306;8.636;2022-07-23T01:16:17;24.34;62.55
25945;SHT31;13742;49.306;8.636;2022-07-23T01:17:17;24.40;62.15
25945;SHT31;13742;49.306;8.636;2022-07-23T01:18:17;24.40;61.96
25945;SHT31;13742;49.306;8.636;2022-07-23T01:19:18;24.44;61.95
25945;SHT31;13742;49.306;8.636;2022-07-23T01:20:17;24.46;62.33
25945;SHT31;13742;49.306;8.636;2022-07-23T01:21:18;24.39;62.61
25945;SHT31;13742;49.306;8.636;2022-07-23T01:22:18;24.31;62.78
25945;SHT31;13742;49.306;8.636;2022-07-23T01:23:17;24.24;62.85
25945;SHT31;13742;49.306;8.636;2022-07-23T01:24:19;24.30;62.65
25945;SHT31;13742;49.306;8.636;2022-07-23T01:25:17;24.36;61.96
25945;SHT31;13742;49.306;8.636;2022-07-23T01:26:17;24.40;61.84
25945;SHT31;13742;49.306;8.636;2022-07-23T01:27:19;24.40;61.69
25945;SHT31;13742;49.306;8.636;2022-07-23T01:28:17;24.41;61.45
25945;SHT31;13742;49.306;8.636;2022-07-23T01:29:18;24.43;61.89
25945;SHT31;13742;49.306;8.636;2022-07-23T01:30:17;24.43;61.71
25945;SHT31;13742;49.306;8.636;2022-07-23T01:31:18;24.44;61.39
25945;SHT31;13742;49.306;8.636;2022-07-23T01:32:17;24.47;61.64
25945;SHT31;13742;49.306;8.636;2022-07-23T01:33:17;24.48;61.48
25945;SHT31;13742;49.306;8.636;2022-07-23T01:34:17;24.50;61.37
25945;SHT31;13742;49.306;8.636;2022-07-23T01:35:17;24.48;61.22
25945;SHT31;13742;49.306;8.636;2022-07-23T01:36:17;24.50;61.27
25945;SHT31;13742;49.306;8.636;2022-07-23T01:37:17;24.31;61.78
25945;SHT31;13742;49.306;8.636;2022-07-23T01:38:17;24.25;62.04
25945;SHT31;13742;49.306;8.636;2022-07-23T01:39:17;24.28;62.05
25945;SHT31;13742;49.306;8.636;2022-07-23T01:40:17;24.25;61.92
25945;SHT31;13742;49.306;8.636;2022-07-23T01:41:17;24.28;61.86
25945;SHT31;13742;49.306;8.636;2022-07-23T01:42:17;24.30;61.42
25945;SHT31;13742;49.306;8.636;2022-07-23T01:43:17;24.31;61.23
25945;SHT31;13742;49.306;8.636;2022-07-23T01:44:17;24.34;61.02
25945;SHT31;13742;49.306;8.636;2022-07-23T01:45:17;24.37;61.38
25945;SHT31;13742;49.306;8.636;2022-07-23T01:46:17;24.37;61.66
25945;SHT31;13742;49.306;8.636;2022-07-23T01:47:17;24.39;61.47
25945;SHT31;13742;49.306;8.636;2022-07-23T01:48:17;24.39;61.35
25945;SHT31;13742;49.306;8.636;2022-07-23T01:49:17;24.41;61.22
25945;SHT31;13742;49.306;8.636;2022-07-23T01:50:17;24.41;61.21
25945;SHT31;13742;49.306;8.636;2022-07-23T01:51:17;24.44;61.09
25945;SHT31;13742;49.306;8.636;2022-07-23T01:52:17;24.43;61.03
25945;SHT31;13742;49.306;8.636;2022-07-23T01:53:17;24.46;61.05
25945;SHT31;13742;49.306;8.636;2022-07-23T01:54:17;24.43;60.96
25945;SHT31;13742;49.306;8.636;2022-07-23T01:55:17;24.46;60.82
25945;SHT31;13742;49.306;8.636;2022-07-23T01:56:19;24.46;61.31
25945;SHT31;13742;49.306;8.636;2022-07-23T01:57:17;24.41;61.32
25945;SHT31;13742;49.306;8.636;2022-07-23T01:58:17;24.39;61.35
25945;SHT31;13742;49.306;8.636;2022-07-23T01:59:17;24.34;61.09
25945;SHT31;13742;49.306;8.636;2022-07-23T02:00:17;24.31;61.42
25945;SHT31;13742;49.306;8.636;2022-07-23T02:01:18;24.21;61.66
25945;SHT31;13742;49.306;8.636;2022-07-23T02:02:17;24.19;61.47
25945;SHT31;13742;49.306;8.636;2022-07-23T02:03:17;24.20;61.15
25945;SHT31;13742;49.306;8.636;2022-07-23T02:04:18;24.21;61.00
25945;SHT31;13742;49.306;8.636;2022-07-23T02:05:17;24.20;61.24
25945;SHT31;13742;49.306;8.636;2022-07-23T02:06:17;23.83;61.68
25945;SHT31;13742;49.306;8.636;2022-07-23T02:07:17;23.90;61.55
25945;SHT31;13742;49.306;8.636;2022-07-23T02:08:17;23.86;61.52
25945;SHT31;13742;49.306;8.636;2022-07-23T02:09:17;23.93;61.34
25945;SHT31;13742;49.306;8.636;2022-07-23T02:10:17;23.72;62.08
25945;SHT31;13742;49.306;8.636;2022-07-23T02:11:17;23.59;62.17
25945;SHT31;13742;49.306;8.636;2022-07-23T02:12:17;23.66;62.09
25945;SHT31;13742;49.306;8.636;2022-07-23T02:13:17;23.62;62.21
25945;SHT31;13742;49.306;8.636;2022-07-23T02:14:17;23.58;62.34
25945;SHT31;13742;49.306;8.636;2022-07-23T02:15:17;23.53;62.51
25945;SHT31;13742;49.306;8.636;2022-07-23T02:16:17;23.45;62.64
25945;SHT31;13742;49.306;8.636;2022-07-23T02:17:17;23.42;62.76
25945;SHT31;13742;49.306;8.636;2022-07-23T02:18:17;23.56;62.17
25945;SHT31;13742;49.306;8.636;2022-07-23T02:19:17;23.58;62.03
25945;SHT31;13742;49.306;8.636;2022-07-23T02:20:17;23.59;61.95
25945;SHT31;13742;49.306;8.636;2022-07-23T02:21:17;23.63;62.01
25945;SHT31;13742;49.306;8.636;2022-07-23T02:22:17;23.62;61.75
25945;SHT31;13742;49.306;8.636;2022-07-23T02:23:17;23.63;61.56
25945;SHT31;13742;49.306;8.636;2022-07-23T02:24:17;23.63;61.72
25945;SHT31;13742;49.306;8.636;2022-07-23T02:25:17;23.66;61.25
25945;SHT31;13742;49.306;8.636;2022-07-23T02:26:17;23.72;61.45
25945;SHT31;13742;49.306;8.636;2022-07-23T02:27:17;23.71;61.34
25945;SHT31;13742;49.306;8.636;2022-07-23T02:28:17;23.78;61.04
25945;SHT31;13742;49.306;8.636;2022-07-23T02:29:17;23.79;61.08
25945;SHT31;13742;49.306;8.636;2022-07-23T02:30:17;23.81;61.17
25945;SHT31;13742;49.306;8.636;2022-07-23T02:31:17;23.78;61.11
25945;SHT31;13742;49.306;8.636;2022-07-23T02:32:17;23.78;61.50
25945;SHT31;13742;49.306;8.636;2022-07-23T02:33:17;23.78;60.99
25945;SHT31;13742;49.306;8.636;2022-07-23T02:34:17;23.83;61.19
25945;SHT31;13742;49.306;8.636;2022-07-23T02:35:17;23.85;61.33
25945;SHT31;13742;49.306;8.636;2022-07-23T02:36:17;23.83;61.38
25945;SHT31;13742;49.306;8.636;2022-07-23T02:37:17;23.86;61.33
25945;SHT31;13742;49.306;8.636;2022-07-23T02:38:17;23.78;61.75
25945;SHT31;13742;49.306;8.636;2022-07-23T02:39:17;23.81;61.59
25945;SHT31;13742;49.306;8.636;2022-07-23T02:40:18;23.73;61.47
25945;SHT31;13742;49.306;8.636;2022-07-23T02:41:17;23.76;61.38
25945;SHT31;13742;49.306;8.636;2022-07-23T02:42:17;23.61;61.67
25945;SHT31;13742;49.306;8.636;2022-07-23T02:43:17;23.62;62.02
25945;SHT31;13742;49.306;8.636;2022-07-23T02:44:17;23.59;62.03
25945;SHT31;13742;49.306;8.636;2022-07-23T02:45:17;23.62;61.84
25945;SHT31;13742;49.306;8.636;2022-07-23T02:46:17;23.59;61.84
25945;SHT31;13742;49.306;8.636;2022-07-23T02:47:17;23.59;62.10
25945;SHT31;13742;49.306;8.636;2022-07-23T02:48:17;23.53;62.30
25945;SHT31;13742;49.306;8.636;2022-07-23T02:49:17;23.46;62.43
25945;SHT31;13742;49.306;8.636;2022-07-23T02:50:17;23.49;62.07
25945;SHT31;13742;49.306;8.636;2022-07-23T02:51:17;23.52;62.09
25945;SHT31;13742;49.306;8.636;2022-07-23T02:52:17;23.52;61.81
25945;SHT31;13742;49.306;8.636;2022-07-23T02:53:17;23.55;62.01
25945;SHT31;13742;49.306;8.636;2022-07-23T02:54:17;23.40;62.40
25945;SHT31;13742;49.306;8.636;2022-07-23T02:55:17;23.32;62.77
25945;SHT31;13742;49.306;8.636;2022-07-23T02:56:17;23.25;63.14
25945;SHT31;13742;49.306;8.636;2022-07-23T02:57:17;23.32;62.61
25945;SHT31;13742;49.306;8.636;2022-07-23T02:58:17;23.32;62.77
25945;SHT31;13742;49.306;8.636;2022-07-23T02:59:18;23.31;62.62
25945;SHT31;13742;49.306;8.636;2022-07-23T03:00:17;23.32;62.79
25945;SHT31;13742;49.306;8.636;2022-07-23T03:01:17;23.27;63.06
25945;SHT31;13742;49.306;8.636;2022-07-23T03:02:17;22.95;64.19
25945;SHT31;13742;49.306;8.636;2022-07-23T03:03:17;22.93;64.31
25945;SHT31;13742;49.306;8.636;2022-07-23T03:04:17;22.90;64.46
25945;SHT31;13742;49.306;8.636;2022-07-23T03:05:17;22.95;64.34
25945;SHT31;13742;49.306;8.636;2022-07-23T03:06:17;23.00;64.24
25945;SHT31;13742;49.306;8.636;2022-07-23T03:07:17;22.84;65.19
25945;SHT31;13742;49.306;8.636;2022-07-23T03:08:17;22.84;64.98
25945;SHT31;13742;49.306;8.636;2022-07-23T03:09:17;22.77;64.88
25945;SHT31;13742;49.306;8.636;2022-07-23T03:10:17;22.69;65.24
25945;SHT31;13742;49.306;8.636;2022-07-23T03:11:17;22.66;65.49
25945;SHT31;13742;49.306;8.636;2022-07-23T03:12:17;22.59;65.19
25945;SHT31;13742;49.306;8.636;2022-07-23T03:13:17;22.67;64.86
25945;SHT31;13742;49.306;8.636;2022-07-23T03:14:17;22.62;65.16
25945;SHT31;13742;49.306;8.636;2022-07-23T03:15:17;22.56;65.14
25945;SHT31;13742;49.306;8.636;2022-07-23T03:16:17;22.58;65.08
25945;SHT31;13742;49.306;8.636;2022-07-23T03:17:17;22.70;64.57
25945;SHT31;13742;49.306;8.636;2022-07-23T03:18:17;22.62;64.59
25945;SHT31;13742;49.306;8.636;2022-07-23T03:19:17;22.73;64.25
25945;SHT31;13742;49.306;8.636;2022-07-23T03:20:17;22.79;64.25
25945;SHT31;13742;49.306;8.636;2022-07-23T03:21:17;22.70;64.39
25945;SHT31;13742;49.306;8.636;2022-07-23T03:22:17;22.66;64.57
25945;SHT31;13742;49.306;8.636;2022-07-23T03:23:17;22.59;64.81
25945;SHT31;13742;49.306;8.636;2022-07-23T03:24:20;22.62;64.89
25945;SHT31;13742;49.306;8.636;2022-07-23T03:25:17;22.63;64.79
25945;SHT31;13742;49.306;8.636;2022-07-23T03:26:17;22.62;64.68
25945;SHT31;13742;49.306;8.636;2022-07-23T03:27:17;22.72;64.24
25945;SHT31;13742;49.306;8.636;2022-07-23T03:28:18;22.77;64.08
25945;SHT31;13742;49.306;8.636;2022-07-23T03:29:17;22.76;64.20
25945;SHT31;13742;49.306;8.636;2022-07-23T03:30:17;22.84;64.02
25945;SHT31;13742;49.306;8.636;2022-07-23T03:31:17;22.76;64.16
25945;SHT31;13742;49.306;8.636;2022-07-23T03:32:17;22.84;63.94
25945;SHT31;13742;49.306;8.636;2022-07-23T03:33:19;22.89;63.57
25945;SHT31;13742;49.306;8.636;2022-07-23T03:34:18;22.84;63.97
25945;SHT31;13742;49.306;8.636;2022-07-23T03:35:17;22.63;64.63
25945;SHT31;13742;49.306;8.636;2022-07-23T03:36:17;22.52;64.97
25945;SHT31;13742;49.306;8.636;2022-07-23T03:37:18;22.49;65.24
25945;SHT31;13742;49.306;8.636;2022-07-23T03:38:17;22.45;65.17
25945;SHT31;13742;49.306;8.636;2022-07-23T03:39:17;22.52;64.87
25945;SHT31;13742;49.306;8.636;2022-07-23T03:40:17;22.51;65.11
25945;SHT31;13742;49.306;8.636;2022-07-23T03:41:18;22.47;65.16
25945;SHT31;13742;49.306;8.636;2022-07-23T03:42:17;22.51;65.11
25945;SHT31;13742;49.306;8.636;2022-07-23T03:43:17;22.53;65.13
25945;SHT31;13742;49.306;8.636;2022-07-23T03:44:17;22.51;65.30
25945;SHT31;13742;49.306;8.636;2022-07-23T03:45:17;22.53;65.24
25945;SHT31;13742;49.306;8.636;2022-07-23T03:46:17;22.49;65.32
25945;SHT31;13742;49.306;8.636;2022-07-23T03:47:17;22.42;65.52
25945;SHT31;13742;49.306;8.636;2022-07-23T03:48:17;22.46;65.42
25945;SHT31;13742;49.306;8.636;2022-07-23T03:49:17;22.51;65.26
25945;SHT31;13742;49.306;8.636;2022-07-23T03:50:17;22.52;65.19
25945;SHT31;13742;49.306;8.636;2022-07-23T03:51:17;22.47;65.43
25945;SHT31;13742;49.306;8.636;2022-07-23T03:52:17;22.47;65.32
25945;SHT31;13742;49.306;8.636;2022-07-23T03:53:17;22.35;65.62
25945;SHT31;13742;49.306;8.636;2022-07-23T03:54:17;22.32;65.57
25945;SHT31;13742;49.306;8.636;2022-07-23T03:55:17;22.33;65.54
25945;SHT31;13742;49.306;8.636;2022-07-23T03:56:17;22.38;65.41
25945;SHT31;13742;49.306;8.636;2022-07-23T03:57:17;22.32;65.71
25945;SHT31;13742;49.306;8.636;2022-07-23T03:58:17;22.32;65.53
25945;SHT31;13742;49.306;8.636;2022-07-23T03:59:17;22.38;65.35
25945;SHT31;13742;49.306;8.636;2022-07-23T04:00:17;22.24;65.79
25945;SHT31;13742;49.306;8.636;2022-07-23T04:01:17;22.29;65.74
25945;SHT31;13742;49.306;8.636;2022-07-23T04:02:17;22.29;65.77
25945;SHT31;13742;49.306;8.636;2022-07-23T04:03:17;22.19;65.91
25945;SHT31;13742;49.306;8.636;2022-07-23T04:04:17;22.14;66.00
25945;SHT31;13742;49.306;8.636;2022-07-23T04:05:17;22.22;65.65
25945;SHT31;13742;49.306;8.636;2022-07-23T04:06:17;22.29;65.62
25945;SHT31;13742;49.306;8.636;2022-07-23T04:07:21;22.25;65.88
25945;SHT31;13742;49.306;8.636;2022-07-23T04:08:17;22.29;65.61
25945;SHT31;13742;49.306;8.636;2022-07-23T04:09:17;22.25;65.75
25945;SHT31;13742;49.306;8.636;2022-07-23T04:10:17;22.36;65.40
25945;SHT31;13742;49.306;8.636;2022-07-23T04:11:17;22.35;65.39
25945;SHT31;13742;49.306;8.636;2022-07-23T04:12:17;22.32;65.73
25945;SHT31;13742;49.306;8.636;2022-07-23T04:13:17;22.38;65.33
25945;SHT31;13742;49.306;8.636;2022-07-23T04:14:18;22.40;65.14
25945;SHT31;13742;49.306;8.636;2022-07-23T04:15:17;22.38;65.35
25945;SHT31;13742;49.306;8.636;2022-07-23T04:16:17;22.45;65.00
25945;SHT31;13742;49.306;8.636;2022-07-23T04:17:17;22.47;65.15
25945;SHT31;13742;49.306;8.636;2022-07-23T04:18:17;22.49;65.32
25945;SHT31;13742;49.306;8.636;2022-07-23T04:19:17;22.36;66.23
25945;SHT31;13742;49.306;8.636;2022-07-23T04:20:17;22.45;66.26
25945;SHT31;13742;49.306;8.636;2022-07-23T04:21:17;22.46;66.91
25945;SHT31;13742;49.306;8.636;2022-07-23T04:22:17;22.51;67.00
25945;SHT31;13742;49.306;8.636;2022-07-23T04:23:17;22.53;67.03
25945;SHT31;13742;49.306;8.636;2022-07-23T04:24:17;22.35;68.31
25945;SHT31;13742;49.306;8.636;2022-07-23T04:25:17;22.24;70.15
25945;SHT31;13742;49.306;8.636;2022-07-23T04:26:17;22.32;70.01
25945;SHT31;13742;49.306;8.636;2022-07-23T04:27:18;22.38;71.27
25945;SHT31;13742;49.306;8.636;2022-07-23T04:28:17;22.45;70.19
25945;SHT31;13742;49.306;8.636;2022-07-23T04:29:17;22.45;69.88
25945;SHT31;13742;49.306;8.636;2022-07-23T04:30:17;22.51;71.11
25945;SHT31;13742;49.306;8.636;2022-07-23T04:31:17;22.42;71.26
25945;SHT31;13742;49.306;8.636;2022-07-23T04:32:17;22.29;72.90
25945;SHT31;13742;49.306;8.636;2022-07-23T04:33:17;22.40;71.92
25945;SHT31;13742;49.306;8.636;2022-07-23T04:34:17;22.45;72.21
25945;SHT31;13742;49.306;8.636;2022-07-23T04:35:17;22.51;71.16
25945;SHT31;13742;49.306;8.636;2022-07-23T04:36:17;22.49;71.21
25945;SHT31;13742;49.306;8.636;2022-07-23T04:37:17;22.55;70.59
25945;SHT31;13742;49.306;8.636;2022-07-23T04:38:17;22.56;70.73
25945;SHT31;13742;49.306;8.636;2022-07-23T04:39:17;22.58;72.27
25945;SHT31;13742;49.306;8.636;2022-07-23T04:40:17;22.62;72.61
25945;SHT31;13742;49.306;8.636;2022-07-23T04:41:17;22.62;71.40
25945;SHT31;13742;49.306;8.636;2022-07-23T04:42:17;22.62;73.09
25945;SHT31;13742;49.306;8.636;2022-07-23T04:43:17;22.51;73.12
25945;SHT31;13742;49.306;8.636;2022-07-23T04:44:17;22.42;73.57
25945;SHT31;13742;49.306;8.636;2022-07-23T04:45:17;22.31;74.36
25945;SHT31;13742;49.306;8.636;2022-07-23T04:46:17;22.29;74.47
25945;SHT31;13742;49.306;8.636;2022-07-23T04:47:17;22.35;72.54
25945;SHT31;13742;49.306;8.636;2022-07-23T04:48:17;22.07;73.17
25945;SHT31;13742;49.306;8.636;2022-07-23T04:49:17;21.81;74.28
25945;SHT31;13742;49.306;8.636;2022-07-23T04:50:21;21.87;74.05
25945;SHT31;13742;49.306;8.636;2022-07-23T04:51:17;21.93;73.41
25945;SHT31;13742;49.306;8.636;2022-07-23T04:52:17;21.93;74.65
25945;SHT31;13742;49.306;8.636;2022-07-23T04:53:18;21.73;76.00
25945;SHT31;13742;49.306;8.636;2022-07-23T04:54:17;21.78;75.05
25945;SHT31;13742;49.306;8.636;2022-07-23T04:55:17;21.78;75.66
25945;SHT31;13742;49.306;8.636;2022-07-23T04:56:17;21.65;76.53
25945;SHT31;13742;49.306;8.636;2022-07-23T04:57:17;21.68;76.04
25945;SHT31;13742;49.306;8.636;2022-07-23T04:58:17;21.57;77.64
25945;SHT31;13742;49.306;8.636;2022-07-23T04:59:17;21.60;77.15
25945;SHT31;13742;49.306;8.636;2022-07-23T05:00:17;21.65;76.95
25945;SHT31;13742;49.306;8.636;2022-07-23T05:01:17;21.40;77.44
25945;SHT31;13742;49.306;8.636;2022-07-23T05:02:17;21.42;77.33
25945;SHT31;13742;49.306;8.636;2022-07-23T05:03:17;21.46;77.90
25945;SHT31;13742;49.306;8.636;2022-07-23T05:04:17;21.42;77.50
25945;SHT31;13742;49.306;8.636;2022-07-23T05:05:17;21.43;77.67
25945;SHT31;13742;49.306;8.636;2022-07-23T05:06:17;21.47;77.11
25945;SHT31;13742;49.306;8.636;2022-07-23T05:07:17;21.53;77.11
25945;SHT31;13742;49.306;8.636;2022-07-23T05:08:17;21.65;77.42
25945;SHT31;13742;49.306;8.636;2022-07-23T05:09:17;21.70;76.76
25945;SHT31;13742;49.306;8.636;2022-07-23T05:10:17;21.71;76.86
25945;SHT31;13742;49.306;8.636;2022-07-23T05:11:17;21.75;76.81
25945;SHT31;13742;49.306;8.636;2022-07-23T05:12:17;21.70;77.34
25945;SHT31;13742;49.306;8.636;2022-07-23T05:13:18;21.65;77.49
25945;SHT31;13742;49.306;8.636;2022-07-23T05:14:17;21.56;77.46
25945;SHT31;13742;49.306;8.636;2022-07-23T05:15:17;21.65;77.49
25945;SHT31;13742;49.306;8.636;2022-07-23T05:16:17;21.73;77.07
25945;SHT31;13742;49.306;8.636;2022-07-23T05:17:17;21.78;77.24
25945;SHT31;13742;49.306;8.636;2022-07-23T05:18:20;21.85;77.18
25945;SHT31;13742;49.306;8.636;2022-07-23T05:19:17;21.90;76.48
25945;SHT31;13742;49.306;8.636;2022-07-23T05:20:17;21.82;76.54
25945;SHT31;13742;49.306;8.636;2022-07-23T05:21:17;21.70;77.16
25945;SHT31;13742;49.306;8.636;2022-07-23T05:22:17;21.61;78.20
25945;SHT31;13742;49.306;8.636;2022-07-23T05:23:17;21.70;77.98
25945;SHT31;13742;49.306;8.636;2022-07-23T05:24:17;21.75;76.80
25945;SHT31;13742;49.306;8.636;2022-07-23T05:25:17;21.82;76.52
25945;SHT31;13742;49.306;8.636;2022-07-23T05:26:17;21.80;76.76
25945;SHT31;13742;49.306;8.636;2022-07-23T05:27:17;21.65;77.19
25945;SHT31;13742;49.306;8.636;2022-07-23T05:28:17;21.61;77.17
25945;SHT31;13742;49.306;8.636;2022-07-23T05:29:17;21.71;77.16
25945;SHT31;13742;49.306;8.636;2022-07-23T05:30:17;21.71;76.68
25945;SHT31;13742;49.306;8.636;2022-07-23T05:31:17;21.81;76.61
25945;SHT31;13742;49.306;8.636;2022-07-23T05:32:17;21.85;76.24
25945;SHT31;13742;49.306;8.636;2022-07-23T05:33:20;21.85;75.26
25945;SHT31;13742;49.306;8.636;2022-07-23T05:34:17;21.88;74.99
25945;SHT31;13742;49.306;8.636;2022-07-23T05:35:17;21.90;75.50
25945;SHT31;13742;49.306;8.636;2022-07-23T05:36:17;21.82;76.41
25945;SHT31;13742;49.306;8.636;2022-07-23T05:37:17;21.88;76.36
25945;SHT31;13742;49.306;8.636;2022-07-23T05:38:17;21.91;75.93
25945;SHT31;13742;49.306;8.636;2022-07-23T05:39:17;21.91;76.42
25945;SHT31;13742;49.306;8.636;2022-07-23T05:40:17;21.81;75.97
25945;SHT31;13742;49.306;8.636;2022-07-23T05:41:17;21.93;75.72
25945;SHT31;13742;49.306;8.636;2022-07-23T05:42:17;21.97;74.99
25945;SHT31;13742;49.306;8.636;2022-07-23T05:43:17;21.95;74.51
25945;SHT31;13742;49.306;8.636;2022-07-23T05:44:17;21.93;76.84
25945;SHT31;13742;49.306;8.636;2022-07-23T05:45:17;21.91;76.55
25945;SHT31;13742;49.306;8.636;2022-07-23T05:46:17;21.97;75.88
25945;SHT31;13742;49.306;8.636;2022-07-23T05:47:17;22.00;75.92
25945;SHT31;13742;49.306;8.636;2022-07-23T05:48:17;22.04;75.73
25945;SHT31;13742;49.306;8.636;2022-07-23T05:49:17;22.04;75.33
25945;SHT31;13742;49.306;8.636;2022-07-23T05:50:17;22.08;75.47
25945;SHT31;13742;49.306;8.636;2022-07-23T05:51:24;22.07;74.84
25945;SHT31;13742;49.306;8.636;2022-07-23T05:52:17;22.11;75.80
25945;SHT31;13742;49.306;8.636;2022-07-23T05:53:17;22.12;75.39
25945;SHT31;13742;49.306;8.636;2022-07-23T05:54:17;22.14;76.10
25945;SHT31;13742;49.306;8.636;2022-07-23T05:55:17;21.85;75.39
25945;SHT31;13742;49.306;8.636;2022-07-23T05:56:18;21.85;75.51
25945;SHT31;13742;49.306;8.636;2022-07-23T05:57:17;21.98;74.86
25945;SHT31;13742;49.306;8.636;2022-07-23T05:58:17;21.98;74.51
25945;SHT31;13742;49.306;8.636;2022-07-23T05:59:17;22.02;74.89
25945;SHT31;13742;49.306;8.636;2022-07-23T06:00:17;22.07;74.15
25945;SHT31;13742;49.306;8.636;2022-07-23T06:01:17;22.07;74.04
25945;SHT31;13742;49.306;8.636;2022-07-23T06:02:17;22.09;74.27
25945;SHT31;13742;49.306;8.636;2022-07-23T06:03:17;22.14;73.98
25945;SHT31;13742;49.306;8.636;2022-07-23T06:04:17;22.12;74.08
25945;SHT31;13742;49.306;8.636;2022-07-23T06:05:17;22.14;74.13
25945;SHT31;13742;49.306;8.636;2022-07-23T06:06:17;22.18;74.91
25945;SHT31;13742;49.306;8.636;2022-07-23T06:07:17;22.19;74.07
25945;SHT31;13742;49.306;8.636;2022-07-23T06:08:17;22.21;74.01
25945;SHT31;13742;49.306;8.636;2022-07-23T06:09:17;22.22;73.82
25945;SHT31;13742;49.306;8.636;2022-07-23T06:10:17;22.19;74.07
25945;SHT31;13742;49.306;8.636;2022-07-23T06:11:17;22.19;73.76
25945;SHT31;13742;49.306;8.636;2022-07-23T06:12:17;22.25;74.58
25945;SHT31;13742;49.306;8.636;2022-07-23T06:13:18;22.19;74.94
25945;SHT31;13742;49.306;8.636;2022-07-23T06:14:17;22.12;76.18
25945;SHT31;13742;49.306;8.636;2022-07-23T06:15:17;22.08;75.72
25945;SHT31;13742;49.306;8.636;2022-07-23T06:16:17;22.14;74.83
25945;SHT31;13742;49.306;8.636;2022-07-23T06:17:17;22.12;74.49
25945;SHT31;13742;49.306;8.636;2022-07-23T06:18:17;22.11;74.89